Time;durP1;ratioP1;P1;durP2;ratioP2;P2;SDS_P1;SDS_P2;PMS_P1;PMS_P2;Temp;Humidity;BMP_temperature;BMP_pressure;BME280_temperature;BME280_humidity;BME280_pressure;Samples;Min_cycle;Max_cycle;Signal;HPM_P1;HPM_P2
2023/03/26 00:00:29;;;;;;;1.90;1.20;;;11.50;42.00;;;;;;4972687;28;20194;-70
2023/03/26 00:02:55;;;;;;;1.80;1.10;;;11.60;42.20;;;;;;4971163;28;20207;-70
2023/03/26 00:05:21;;;;;;;1.80;1.10;;;11.80;40.50;;;;;;4969517;28;20528;-70
2023/03/26 00:07:47;;;;;;;2.63;1.30;;;12.10;40.90;;;;;;4970729;28;20449;-70
2023/03/26 00:10:14;;;;;;;1.80;1.00;;;11.80;41.30;;;;;;4987848;28;20173;-70
2023/03/26 00:12:39;;;;;;;1.80;1.10;;;11.70;41.80;;;;;;4970495;28;20457;-70
2023/03/26 00:15:06;;;;;;;1.80;1.00;;;12.00;41.10;;;;;;4982529;28;20524;-70
2023/03/26 00:17:32;;;;;;;1.90;1.10;;;12.10;40.40;;;;;;4974677;28;20611;-70
2023/03/26 00:19:58;;;;;;;1.90;1.10;;;12.70;40.10;;;;;;4987435;28;20505;-70
2023/03/26 00:22:24;;;;;;;1.80;1.10;;;12.40;40.90;;;;;;4977716;28;20214;-70
2023/03/26 00:24:50;;;;;;;1.80;1.00;;;12.20;41.20;;;;;;4976690;28;20552;-70
2023/03/26 00:27:16;;;;;;;1.83;1.10;;;12.20;40.90;;;;;;4970212;28;20179;-70
2023/03/26 00:29:42;;;;;;;1.80;1.10;;;12.40;41.30;;;;;;4977784;28;20258;-70
2023/03/26 00:32:08;;;;;;;1.80;1.10;;;12.40;40.80;;;;;;4979627;28;20470;-70
2023/03/26 00:34:34;;;;;;;2.10;1.40;;;12.80;42.20;;;;;;4976552;28;20547;-69
2023/03/26 00:37:01;;;;;;;1.90;1.20;;;12.70;41.60;;;;;;4970169;28;20183;-70
2023/03/26 00:39:28;;;;;;;1.80;1.10;;;12.60;40.80;;;;;;4974390;28;20449;-70
2023/03/26 00:41:54;;;;;;;1.90;1.20;;;12.80;41.40;;;;;;4975153;28;20436;-70
2023/03/26 00:44:20;;;;;;;1.90;1.13;;;12.60;40.10;;;;;;4973859;28;20505;-71
2023/03/26 00:46:46;;;;;;;1.90;1.13;;;12.70;40.00;;;;;;4977349;28;20437;-70
2023/03/26 00:49:13;;;;;;;1.80;1.10;;;12.70;40.40;;;;;;4973294;28;20434;-69
2023/03/26 00:51:40;;;;;;;1.80;1.10;;;12.40;41.20;;;;;;4974642;28;20545;-70
2023/03/26 00:54:08;;;;;;;1.80;1.00;;;12.50;40.60;;;;;;4974788;28;20441;-70
2023/03/26 00:56:34;;;;;;;1.90;1.13;;;12.50;40.80;;;;;;4974487;28;20477;-69
2023/03/26 00:59:00;;;;;;;1.90;1.10;;;12.50;41.20;;;;;;4971233;28;20470;-70
2023/03/26 01:01:27;;;;;;;1.90;1.10;;;12.60;41.80;;;;;;4973251;28;20486;-70
2023/03/26 01:03:57;;;;;;;1.87;1.10;;;12.20;42.00;;;;;;4973796;28;20233;-70
2023/03/26 01:06:34;;;;;;;1.93;1.17;;;12.00;43.00;;;;;;4969493;28;20770;-70
2023/03/26 01:09:17;;;;;;;1.80;1.00;;;12.00;42.10;;;;;;4978933;28;20804;-70
2023/03/26 01:11:44;;;;;;;1.90;1.10;;;12.00;42.40;;;;;;4983589;28;20428;-70
2023/03/26 01:14:19;;;;;;;2.30;1.40;;;12.00;42.00;;;;;;4979433;28;20975;-70
2023/03/26 01:16:54;;;;;;;1.83;1.10;;;11.90;42.40;;;;;;4977502;28;20440;-70
2023/03/26 01:19:51;;;;;;;1.90;1.20;;;11.80;43.70;;;;;;4973740;28;20789;-70
2023/03/26 01:22:20;;;;;;;1.97;1.20;;;11.80;43.00;;;;;;4984308;28;20438;-70
2023/03/26 01:24:51;;;;;;;1.80;1.10;;;11.60;42.70;;;;;;4972704;28;20488;-70
2023/03/26 01:27:37;;;;;;;2.00;1.53;;;11.50;43.60;;;;;;4973116;28;20445;-70
2023/03/26 01:30:18;;;;;;;1.90;1.20;;;11.70;44.00;;;;;;4970849;28;20445;-70
2023/03/26 01:32:57;;;;;;;1.97;1.20;;;11.50;43.20;;;;;;4980559;28;20467;-70
2023/03/26 01:35:50;;;;;;;1.80;1.00;;;11.60;43.90;;;;;;4967701;28;20441;-70
2023/03/26 01:38:39;;;;;;;1.83;1.10;;;11.70;43.40;;;;;;4973581;28;20434;-70
2023/03/26 01:41:30;;;;;;;2.00;1.20;;;11.90;44.10;;;;;;4967653;28;20441;-69
2023/03/26 01:44:08;;;;;;;1.90;1.13;;;12.20;43.90;;;;;;4973235;28;20457;-70
2023/03/26 01:46:35;;;;;;;1.90;1.10;;;11.70;43.30;;;;;;4974114;28;20410;-70
2023/03/26 01:49:03;;;;;;;1.90;1.10;;;11.60;44.00;;;;;;4974173;28;20175;-70
2023/03/26 01:51:35;;;;;;;1.90;1.10;;;11.70;43.40;;;;;;4962570;28;20421;-69
2023/03/26 01:54:03;;;;;;;2.25;1.55;;;11.70;43.80;;;;;;4972499;28;20468;-70
2023/03/26 01:56:46;;;;;;;1.80;1.10;;;11.80;43.60;;;;;;4973804;28;20202;-69
2023/03/26 01:59:24;;;;;;;1.80;1.10;;;11.90;42.70;;;;;;4973331;28;20190;-70
2023/03/26 02:02:03;;;;;;;1.80;1.00;;;11.60;42.00;;;;;;4955031;28;20205;-70
2023/03/26 02:04:35;;;;;;;1.90;1.10;;;11.80;43.00;;;;;;4971507;28;20512;-70
2023/03/26 02:07:50;;;;;;;1.90;1.20;;;11.80;43.10;;;;;;4973760;28;20418;-70
2023/03/26 02:10:24;;;;;;;1.80;1.10;;;11.90;43.00;;;;;;4947419;28;20433;-70
2023/03/26 02:12:51;;;;;;;1.90;1.10;;;11.70;43.30;;;;;;4973117;28;20203;-70
2023/03/26 02:15:17;;;;;;;1.83;1.10;;;11.80;43.50;;;;;;4976690;28;20868;-70
2023/03/26 02:17:42;;;;;;;1.87;1.13;;;11.80;43.50;;;;;;4984226;28;20471;-70
2023/03/26 02:20:10;;;;;;;1.90;1.10;;;12.30;43.50;;;;;;4971185;28;20241;-69
2023/03/26 02:22:39;;;;;;;1.83;1.15;;;12.00;42.40;;;;;;4976761;28;20620;-69
2023/03/26 02:25:08;;;;;;;1.80;1.10;;;11.90;43.00;;;;;;4975377;28;20202;-68
2023/03/26 02:27:33;;;;;;;1.80;1.10;;;11.90;42.90;;;;;;4974036;28;20190;-68
2023/03/26 02:29:59;;;;;;;1.80;1.10;;;12.10;41.60;;;;;;4978995;28;20487;-69
2023/03/26 02:32:25;;;;;;;1.77;1.00;;;12.60;41.70;;;;;;4970767;28;20438;-70
2023/03/26 02:34:51;;;;;;;1.80;1.10;;;12.10;42.80;;;;;;4983042;28;20869;-70
2023/03/26 02:37:17;;;;;;;1.73;1.00;;;12.50;41.40;;;;;;4975201;28;20233;-70
2023/03/26 02:39:43;;;;;;;1.80;1.10;;;12.10;41.60;;;;;;4970971;28;20187;-70
2023/03/26 02:42:09;;;;;;;1.80;1.20;;;12.00;42.30;;;;;;4971985;28;20521;-70
2023/03/26 02:44:37;;;;;;;1.80;1.10;;;12.00;41.40;;;;;;4980945;28;20977;-70
2023/03/26 02:47:03;;;;;;;1.87;1.17;;;11.80;42.20;;;;;;4972050;28;20202;-70
2023/03/26 02:49:29;;;;;;;1.80;1.10;;;11.80;42.10;;;;;;4978666;28;20465;-70
2023/03/26 02:51:55;;;;;;;2.10;1.30;;;11.80;43.00;;;;;;4970830;28;20426;-69
2023/03/26 02:54:21;;;;;;;1.80;1.10;;;12.00;42.70;;;;;;4980665;28;20194;-69
2023/03/26 02:56:47;;;;;;;1.90;1.27;;;12.40;40.70;;;;;;4979252;28;20941;-69
2023/03/26 02:59:13;;;;;;;1.80;1.10;;;12.40;40.70;;;;;;4980212;28;20446;-70
2023/03/26 03:01:41;;;;;;;1.80;1.10;;;12.40;40.60;;;;;;4974572;28;20233;-70
2023/03/26 03:04:11;;;;;;;1.80;1.10;;;12.30;40.40;;;;;;4975458;28;20979;-70
2023/03/26 03:06:39;;;;;;;1.80;1.20;;;12.40;41.30;;;;;;4982171;28;20578;-70
2023/03/26 03:09:07;;;;;;;1.90;1.30;;;12.30;42.10;;;;;;4984102;28;20397;-70
2023/03/26 03:11:33;;;;;;;1.80;1.10;;;12.50;41.60;;;;;;4973477;28;20441;-70
2023/03/26 03:13:59;;;;;;;1.80;1.10;;;12.80;40.50;;;;;;4975138;28;20501;-70
2023/03/26 03:16:25;;;;;;;1.77;1.10;;;12.10;43.00;;;;;;4984275;28;21011;-70
2023/03/26 03:18:55;;;;;;;1.70;1.03;;;12.10;42.60;;;;;;4980672;28;20813;-70
2023/03/26 03:21:21;;;;;;;1.73;1.10;;;12.10;43.20;;;;;;4971450;28;20488;-70
2023/03/26 03:23:47;;;;;;;1.80;1.10;;;12.20;43.10;;;;;;4978120;28;20981;-69
2023/03/26 03:26:15;;;;;;;2.07;1.30;;;11.90;43.20;;;;;;4970698;28;20186;-70
2023/03/26 03:28:41;;;;;;;1.80;1.10;;;11.60;43.20;;;;;;4979557;28;20179;-70
2023/03/26 03:31:07;;;;;;;2.20;1.50;;;11.90;40.00;;;;;;4972182;28;20442;-70
2023/03/26 03:33:34;;;;;;;1.70;1.10;;;11.50;40.10;;;;;;4962550;28;20552;-69
2023/03/26 03:36:00;;;;;;;1.70;1.10;;;11.70;41.10;;;;;;4978038;28;20448;-69
2023/03/26 03:38:25;;;;;;;1.70;1.00;;;11.90;40.80;;;;;;4981330;28;20909;-69
2023/03/26 03:40:54;;;;;;;1.70;1.10;;;12.10;38.80;;;;;;4992038;28;20545;-70
2023/03/26 03:43:19;;;;;;;1.77;1.10;;;11.70;39.50;;;;;;4974940;28;20571;-70
2023/03/26 03:45:46;;;;;;;1.70;1.10;;;11.70;40.30;;;;;;4970294;28;20472;-70
2023/03/26 03:48:11;;;;;;;2.03;1.30;;;11.60;40.40;;;;;;4971349;28;20186;-70
2023/03/26 03:50:37;;;;;;;1.70;1.10;;;11.80;39.50;;;;;;4972359;28;20440;-70
2023/03/26 03:53:04;;;;;;;1.80;1.10;;;12.00;38.60;;;;;;4971178;28;20206;-70
2023/03/26 03:55:30;;;;;;;1.90;1.30;;;11.90;38.90;;;;;;4974476;28;20284;-70
2023/03/26 03:57:57;;;;;;;1.80;1.10;;;11.70;38.70;;;;;;4975098;28;20487;-70
2023/03/26 04:00:23;;;;;;;2.00;1.20;;;11.80;40.00;;;;;;4975994;28;20179;-70
2023/03/26 04:02:48;;;;;;;1.80;1.10;;;11.50;40.90;;;;;;4978297;28;20463;-70
2023/03/26 04:05:14;;;;;;;1.70;1.10;;;11.60;39.60;;;;;;4976426;28;20980;-70
2023/03/26 04:07:40;;;;;;;1.77;1.13;;;11.70;40.10;;;;;;4965644;28;20352;-70
2023/03/26 04:10:08;;;;;;;1.80;1.10;;;11.80;40.70;;;;;;4989695;28;20665;-70
2023/03/26 04:12:33;;;;;;;1.90;1.20;;;11.40;40.10;;;;;;4973748;28;20272;-69
2023/03/26 04:14:59;;;;;;;1.80;1.17;;;11.40;41.50;;;;;;4982951;28;20417;-70
2023/03/26 04:17:25;;;;;;;1.80;1.10;;;11.10;41.20;;;;;;4982522;28;20190;-70
2023/03/26 04:19:54;;;;;;;2.10;1.30;;;11.20;42.10;;;;;;4984840;28;20186;-69
2023/03/26 04:22:20;;;;;;;1.80;1.17;;;11.40;41.30;;;;;;4974485;28;20438;-70
2023/03/26 04:24:47;;;;;;;1.70;1.00;;;11.50;39.30;;;;;;4972342;28;20480;-70
2023/03/26 04:27:17;;;;;;;1.90;1.20;;;11.70;40.10;;;;;;4978113;28;20484;-70
2023/03/26 04:29:46;;;;;;;1.80;1.10;;;11.60;39.30;;;;;;4976611;28;20437;-67
2023/03/26 04:32:33;;;;;;;1.90;1.13;;;11.20;40.00;;;;;;4961588;28;20446;-70
2023/03/26 04:35:02;;;;;;;1.73;1.07;;;11.30;40.20;;;;;;4973743;28;20441;-70
2023/03/26 04:37:39;;;;;;;1.80;1.17;;;11.90;39.10;;;;;;4982556;28;20424;-70
2023/03/26 04:40:10;;;;;;;1.90;1.20;;;11.70;39.00;;;;;;4973875;28;20437;-70
2023/03/26 04:42:40;;;;;;;1.80;1.13;;;11.80;38.90;;;;;;4989829;28;20840;-70
2023/03/26 04:45:06;;;;;;;1.73;1.07;;;12.20;37.80;;;;;;4975635;28;20473;-70
2023/03/26 04:47:35;;;;;;;1.70;1.00;;;12.00;38.60;;;;;;4979900;28;20787;-70
2023/03/26 04:50:02;;;;;;;1.77;1.10;;;11.90;39.20;;;;;;4977978;28;20524;-70
2023/03/26 04:52:28;;;;;;;1.80;1.10;;;12.10;37.50;;;;;;4992973;28;20417;-70
2023/03/26 04:54:53;;;;;;;1.70;1.00;;;11.80;38.60;;;;;;4974470;28;20470;-70
2023/03/26 04:57:26;;;;;;;1.80;1.17;;;11.70;40.20;;;;;;4984743;28;20190;-70
2023/03/26 04:59:52;;;;;;;1.83;1.20;;;12.00;40.30;;;;;;4974458;28;20193;-69
2023/03/26 05:02:17;;;;;;;1.70;1.10;;;12.10;39.10;;;;;;4980379;28;20441;-70
2023/03/26 05:04:47;;;;;;;1.90;1.30;;;12.10;38.10;;;;;;4983178;28;20570;-71
2023/03/26 05:07:18;;;;;;;1.77;1.10;;;12.20;38.40;;;;;;4973375;28;20181;-70
2023/03/26 05:09:43;;;;;;;1.93;1.30;;;12.40;37.00;;;;;;4979159;28;20441;-70
2023/03/26 05:12:09;;;;;;;1.80;1.10;;;12.30;38.50;;;;;;4972992;28;20512;-70
2023/03/26 05:14:35;;;;;;;1.90;1.10;;;11.90;37.60;;;;;;4986166;28;20217;-69
2023/03/26 05:17:04;;;;;;;1.70;1.10;;;11.40;37.40;;;;;;4987621;28;20249;-70
2023/03/26 05:19:31;;;;;;;2.10;1.30;;;11.60;38.00;;;;;;4986988;28;20570;-70
2023/03/26 05:21:56;;;;;;;1.90;1.20;;;11.60;37.30;;;;;;4980638;28;20434;-69
2023/03/26 05:24:23;;;;;;;1.83;1.13;;;11.60;37.10;;;;;;4969126;28;20815;-69
2023/03/26 05:26:49;;;;;;;1.70;1.10;;;12.00;32.00;;;;;;4981813;28;20221;-70
2023/03/26 05:29:19;;;;;;;1.70;1.00;;;12.30;31.70;;;;;;4978020;28;20438;-69
2023/03/26 05:31:44;;;;;;;1.80;1.10;;;12.30;28.40;;;;;;4975197;28;20429;-69
2023/03/26 05:34:10;;;;;;;1.70;1.00;;;12.40;28.00;;;;;;4970681;28;20499;-70
2023/03/26 05:36:36;;;;;;;1.83;1.13;;;12.20;29.20;;;;;;4976477;28;20228;-70
2023/03/26 05:39:02;;;;;;;1.70;1.10;;;12.30;28.90;;;;;;4989255;28;20244;-69
2023/03/26 05:41:28;;;;;;;1.80;1.10;;;12.30;29.90;;;;;;4973778;28;20919;-70
2023/03/26 05:43:54;;;;;;;1.80;1.10;;;12.20;30.10;;;;;;4972002;28;20492;-70
2023/03/26 05:46:20;;;;;;;1.80;1.20;;;12.30;32.00;;;;;;4973823;28;20186;-70
2023/03/26 05:48:46;;;;;;;1.80;1.10;;;12.70;30.60;;;;;;4973969;28;20191;-70
2023/03/26 05:51:14;;;;;;;1.80;1.13;;;12.70;30.00;;;;;;4971854;28;20430;-70
2023/03/26 05:53:40;;;;;;;1.70;1.10;;;13.00;30.30;;;;;;4973492;28;20221;-70
2023/03/26 05:56:06;;;;;;;1.80;1.20;;;12.90;30.70;;;;;;4971362;28;20577;-70
2023/03/26 05:58:33;;;;;;;1.77;1.10;;;12.50;31.00;;;;;;4974184;28;20779;-70
2023/03/26 06:01:07;;;;;;;1.90;1.20;;;11.80;32.40;;;;;;4973183;28;20449;-70
2023/03/26 06:03:34;;;;;;;1.70;1.03;;;11.90;33.40;;;;;;4971864;28;20512;-70
2023/03/26 06:06:00;;;;;;;1.80;1.10;;;12.00;33.60;;;;;;4970013;28;20489;-70
2023/03/26 06:08:26;;;;;;;1.80;1.10;;;11.40;34.70;;;;;;4974741;28;20422;-70
2023/03/26 06:11:06;;;;;;;1.70;1.10;;;11.30;35.50;;;;;;4982842;28;20257;-69
2023/03/26 06:13:31;;;;;;;1.80;1.20;;;11.20;35.90;;;;;;4973707;28;20293;-69
2023/03/26 06:15:57;;;;;;;1.80;1.10;;;11.50;36.10;;;;;;4974985;28;20541;-70
2023/03/26 06:18:23;;;;;;;1.70;1.10;;;11.70;36.10;;;;;;4980779;28;20638;-70
2023/03/26 06:20:50;;;;;;;1.70;1.07;;;11.80;35.60;;;;;;4977849;28;20249;-70
2023/03/26 06:23:16;;;;;;;1.73;1.03;;;11.90;35.90;;;;;;4978841;28;20465;-70
2023/03/26 06:25:43;;;;;;;1.80;1.20;;;11.90;35.20;;;;;;4973050;28;20465;-70
2023/03/26 06:28:08;;;;;;;1.80;1.20;;;11.80;35.30;;;;;;4990546;28;20409;-70
2023/03/26 06:30:34;;;;;;;1.77;1.10;;;11.80;35.90;;;;;;4988257;28;20445;-70
2023/03/26 06:33:00;;;;;;;2.10;1.40;;;12.40;34.70;;;;;;4990177;28;20218;-69
2023/03/26 06:35:26;;;;;;;2.50;1.37;;;12.30;35.30;;;;;;4979410;28;20438;-71
2023/03/26 06:37:52;;;;;;;1.80;1.10;;;12.00;35.80;;;;;;4975340;28;20198;-69
2023/03/26 06:40:17;;;;;;;1.77;1.10;;;11.90;37.90;;;;;;4975885;28;20508;-70
2023/03/26 06:42:43;;;;;;;1.90;1.33;;;11.50;39.30;;;;;;4992626;28;20256;-70
2023/03/26 06:45:09;;;;;;;1.80;1.10;;;11.60;40.20;;;;;;4983416;28;20214;-70
2023/03/26 06:47:34;;;;;;;2.23;1.50;;;11.40;40.50;;;;;;4976780;28;20186;-70
2023/03/26 06:50:00;;;;;;;1.80;1.20;;;11.30;41.40;;;;;;4985817;28;20442;-70
2023/03/26 06:52:27;;;;;;;1.90;1.27;;;11.40;41.20;;;;;;4981676;28;20266;-70
2023/03/26 06:54:52;;;;;;;1.70;1.00;;;10.90;42.10;;;;;;4978740;28;20318;-69
2023/03/26 06:57:18;;;;;;;1.80;1.10;;;10.90;43.00;;;;;;4968929;28;20437;-69
2023/03/26 06:59:44;;;;;;;1.90;1.20;;;11.20;41.90;;;;;;4982614;28;20202;-70
2023/03/26 07:02:10;;;;;;;1.80;1.10;;;11.30;43.00;;;;;;4980598;28;20260;-70
2023/03/26 07:04:36;;;;;;;1.70;1.10;;;11.30;42.60;;;;;;4979618;28;20291;-70
2023/03/26 07:07:02;;;;;;;2.00;1.30;;;11.40;41.60;;;;;;4968406;28;20446;-70
2023/03/26 07:09:30;;;;;;;1.80;1.10;;;11.30;43.10;;;;;;4980236;28;20440;-70
2023/03/26 07:11:57;;;;;;;1.80;1.10;;;11.30;42.80;;;;;;4972775;28;20263;-70
2023/03/26 07:14:23;;;;;;;2.20;1.67;;;11.30;43.80;;;;;;4979125;28;20457;-70
2023/03/26 07:16:50;;;;;;;2.10;1.47;;;11.70;43.40;;;;;;4976591;28;20957;-69
2023/03/26 07:19:16;;;;;;;1.70;1.10;;;12.50;42.70;;;;;;4984756;28;20814;-69
2023/03/26 07:21:42;;;;;;;1.80;1.10;;;12.10;42.30;;;;;;4971809;28;20441;-70
2023/03/26 07:24:12;;;;;;;1.73;1.10;;;12.10;42.00;;;;;;4967738;28;20461;-70
2023/03/26 07:26:51;;;;;;;1.90;1.20;;;11.70;44.00;;;;;;4970585;28;20438;-70
2023/03/26 07:29:40;;;;;;;1.77;1.10;;;11.60;43.50;;;;;;4978160;28;20440;-70
2023/03/26 07:32:19;;;;;;;2.30;1.30;;;11.50;45.70;;;;;;4982043;28;20442;-70
2023/03/26 07:35:06;;;;;;;1.70;1.10;;;11.40;47.20;;;;;;4979546;28;20439;-70
2023/03/26 07:37:41;;;;;;;1.70;1.00;;;11.40;47.50;;;;;;4998782;28;20547;-69
2023/03/26 07:40:46;;;;;;;1.80;1.10;;;11.40;49.30;;;;;;4986617;28;20424;-70
2023/03/26 07:43:11;;;;;;;1.77;1.10;;;11.40;48.30;;;;;;4942997;28;20488;-70
2023/03/26 07:45:42;;;;;;;2.30;1.53;;;11.40;49.90;;;;;;4978789;28;20489;-70
2023/03/26 07:48:16;;;;;;;1.80;1.10;;;11.70;47.10;;;;;;4979305;28;20171;-69
2023/03/26 07:50:43;;;;;;;1.80;1.10;;;12.30;46.20;;;;;;4980294;28;20432;-70
2023/03/26 07:53:09;;;;;;;1.70;1.10;;;12.40;45.80;;;;;;4987791;28;20453;-70
2023/03/26 07:55:47;;;;;;;1.80;1.20;;;12.10;47.00;;;;;;4978064;28;20442;-70
2023/03/26 07:58:31;;;;;;;1.70;1.10;;;12.20;45.20;;;;;;4979898;28;20427;-70
2023/03/26 08:01:05;;;;;;;1.70;1.10;;;11.80;45.70;;;;;;4977524;28;20472;-70
2023/03/26 08:03:45;;;;;;;1.80;1.20;;;12.00;44.50;;;;;;4979835;28;20829;-69
2023/03/26 08:06:29;;;;;;;1.70;1.10;;;11.70;46.60;;;;;;4978503;28;20449;-70
2023/03/26 08:09:21;;;;;;;1.80;1.10;;;11.30;48.40;;;;;;4981104;28;20784;-70
2023/03/26 08:11:57;;;;;;;1.70;1.10;;;11.00;49.50;;;;;;4976313;28;20429;-71
2023/03/26 08:14:32;;;;;;;1.70;1.10;;;11.00;50.50;;;;;;4985930;28;20464;-70
2023/03/26 08:17:22;;;;;;;1.80;1.20;;;11.10;51.20;;;;;;4978838;28;20415;-71
2023/03/26 08:20:15;;;;;;;2.00;1.40;;;11.00;52.30;;;;;;4973685;28;20440;-71
2023/03/26 08:22:42;;;;;;;1.90;1.27;;;10.80;55.50;;;;;;4988240;28;20498;-71
2023/03/26 08:25:26;;;;;;;1.80;1.17;;;11.20;52.40;;;;;;4998174;28;20948;-70
2023/03/26 08:28:07;;;;;;;2.43;1.53;;;11.80;49.20;;;;;;4986055;28;20563;-70
2023/03/26 08:30:33;;;;;;;1.73;1.07;;;11.80;48.20;;;;;;4976928;28;20525;-71
2023/03/26 08:33:12;;;;;;;1.70;1.10;;;11.90;46.90;;;;;;4982358;28;21070;-71
2023/03/26 08:35:41;;;;;;;1.90;1.30;;;12.10;48.20;;;;;;4986912;28;20658;-71
2023/03/26 08:38:12;;;;;;;1.90;1.30;;;12.80;45.60;;;;;;4978969;28;20412;-69
2023/03/26 08:41:08;;;;;;;1.80;1.13;;;12.90;46.00;;;;;;4974269;28;20843;-69
2023/03/26 08:44:21;;;;;;;1.70;1.10;;;13.00;43.70;;;;;;4975430;28;20494;-69
2023/03/26 08:46:58;;;;;;;1.70;1.10;;;13.20;47.30;;;;;;4967107;28;20537;-69
2023/03/26 08:49:38;;;;;;;1.80;1.10;;;13.30;47.40;;;;;;4975587;28;20406;-69
2023/03/26 08:52:41;;;;;;;1.80;1.20;;;13.50;44.90;;;;;;4982062;28;20938;-69
2023/03/26 08:55:35;;;;;;;1.77;1.13;;;13.60;45.80;;;;;;4983905;28;20967;-69
2023/03/26 08:58:12;;;;;;;2.20;1.40;;;13.50;47.60;;;;;;4976520;28;20496;-69
2023/03/26 09:00:58;;;;;;;1.70;1.10;;;13.60;46.00;;;;;;4984720;28;20900;-69
2023/03/26 09:03:45;;;;;;;1.80;1.17;;;13.70;45.70;;;;;;4972267;28;20456;-68
2023/03/26 09:06:26;;;;;;;1.80;1.17;;;14.00;43.20;;;;;;4978517;28;20458;-69
2023/03/26 09:09:21;;;;;;;1.70;1.10;;;13.80;42.70;;;;;;4967883;28;20797;-68
2023/03/26 09:12:02;;;;;;;1.70;1.10;;;13.30;45.60;;;;;;4977662;28;20475;-70
2023/03/26 09:14:34;;;;;;;1.70;1.10;;;13.30;46.80;;;;;;4970022;28;20465;-68
2023/03/26 09:17:12;;;;;;;1.70;1.10;;;13.30;45.40;;;;;;4967641;28;21028;-70
2023/03/26 09:19:55;;;;;;;1.70;1.20;;;13.20;47.20;;;;;;4975220;28;20464;-70
2023/03/26 09:22:41;;;;;;;1.83;1.27;;;14.00;45.50;;;;;;4976851;28;20793;-69
2023/03/26 09:25:38;;;;;;;1.83;1.13;;;14.80;43.60;;;;;;4993580;28;20454;-70
2023/03/26 09:28:40;;;;;;;2.10;1.30;;;15.00;42.70;;;;;;4972258;28;20444;-70
2023/03/26 09:31:31;;;;;;;1.90;1.20;;;15.40;40.80;;;;;;4968638;28;20445;-71
2023/03/26 09:34:15;;;;;;;1.90;1.20;;;15.20;42.10;;;;;;4973315;28;20929;-70
2023/03/26 09:36:40;;;;;;;1.90;1.30;;;15.50;41.60;;;;;;4976492;28;21010;-70
2023/03/26 09:39:16;;;;;;;2.47;1.50;;;15.70;38.60;;;;;;4977988;28;20525;-70
2023/03/26 09:42:08;;;;;;;1.80;1.13;;;15.70;37.60;;;;;;4971776;28;20225;-70
2023/03/26 09:45:00;;;;;;;1.90;1.20;;;14.50;42.90;;;;;;4978313;28;20527;-69
2023/03/26 09:47:44;;;;;;;1.90;1.20;;;13.60;49.80;;;;;;4975971;28;20477;-70
2023/03/26 09:50:28;;;;;;;1.80;1.20;;;13.00;53.40;;;;;;4974063;28;20426;-70
2023/03/26 09:53:23;;;;;;;1.80;1.20;;;12.60;54.90;;;;;;4973338;28;20849;-73
2023/03/26 09:56:27;;;;;;;1.90;1.20;;;12.30;57.70;;;;;;4976166;28;21012;-71
2023/03/26 09:59:13;;;;;;;1.80;1.10;;;12.20;54.40;;;;;;4968988;28;20436;-72
2023/03/26 10:01:57;;;;;;;1.80;1.10;;;12.20;54.70;;;;;;4972186;28;20437;-71
2023/03/26 10:05:03;;;;;;;1.90;1.20;;;11.80;46.50;;;;;;4971417;28;20477;-71
2023/03/26 10:08:03;;;;;;;1.80;1.20;;;12.00;48.80;;;;;;4967655;28;20451;-70
2023/03/26 10:10:54;;;;;;;1.80;1.10;;;11.20;55.40;;;;;;4969679;28;20429;-71
2023/03/26 10:13:29;;;;;;;1.70;1.10;;;10.80;59.30;;;;;;4970155;28;20457;-71
2023/03/26 10:16:31;;;;;;;1.80;1.10;;;11.10;57.70;;;;;;4974765;28;20795;-72
2023/03/26 10:19:30;;;;;;;1.80;1.10;;;11.00;57.90;;;;;;4954066;28;20434;-72
2023/03/26 10:22:16;;;;;;;1.80;1.10;;;10.30;62.20;;;;;;4969488;28;21239;-71
2023/03/26 10:25:07;;;;;;;1.80;1.13;;;10.10;59.00;;;;;;4970692;28;20602;-70
2023/03/26 10:27:46;;;;;;;1.90;1.20;;;10.20;58.80;;;;;;4970001;28;20430;-71
2023/03/26 10:30:28;;;;;;;1.80;1.20;;;10.10;58.70;;;;;;4961285;28;20436;-69
2023/03/26 10:33:09;;;;;;;1.90;1.20;;;10.50;56.70;;;;;;4966120;28;20469;-70
2023/03/26 10:35:54;;;;;;;1.80;1.10;;;10.80;52.40;;;;;;4967103;28;20528;-70
2023/03/26 10:38:29;;;;;;;1.80;1.20;;;11.60;51.30;;;;;;4970693;28;21023;-69
2023/03/26 10:41:03;;;;;;;1.77;1.13;;;12.40;51.70;;;;;;4973635;28;20809;-72
2023/03/26 10:43:58;;;;;;;1.80;1.20;;;13.20;46.50;;;;;;4973059;28;20456;-70
2023/03/26 10:47:00;;;;;;;1.80;1.10;;;12.80;48.10;;;;;;4902363;29;20484;-69
2023/03/26 10:49:34;;;;;;;1.80;1.10;;;13.60;44.30;;;;;;4911386;28;21015;-71
2023/03/26 10:52:05;;;;;;;1.90;1.20;;;14.50;42.50;;;;;;4904812;29;21000;-72
2023/03/26 10:55:02;;;;;;;1.80;1.20;;;14.10;43.30;;;;;;4893209;29;20468;-75
2023/03/26 10:57:43;;;;;;;1.80;1.10;;;14.10;44.60;;;;;;4894118;29;20452;-72
2023/03/26 11:00:24;;;;;;;3.10;1.87;;;14.40;40.90;;;;;;4907133;29;20449;-72
2023/03/26 11:03:04;;;;;;;1.80;1.10;;;14.90;40.40;;;;;;4891161;29;20468;-71
2023/03/26 11:05:48;;;;;;;1.80;1.10;;;14.60;41.70;;;;;;4892267;29;20526;-72
2023/03/26 11:08:25;;;;;;;1.80;1.00;;;14.00;39.30;;;;;;4893479;29;20975;-68
2023/03/26 11:10:53;;;;;;;1.80;1.20;;;12.50;37.10;;;;;;4892244;29;20598;-70
2023/03/26 11:13:30;;;;;;;1.80;1.20;;;11.90;39.20;;;;;;4892903;29;20463;-68
2023/03/26 11:16:08;;;;;;;1.80;1.20;;;11.70;42.40;;;;;;4897299;29;20521;-67
2023/03/26 11:18:54;;;;;;;1.90;1.30;;;12.00;43.10;;;;;;4899243;29;20439;-70
2023/03/26 11:21:40;;;;;;;2.13;1.43;;;12.50;42.80;;;;;;4893501;29;20490;-68
2023/03/26 11:24:29;;;;;;;1.80;1.10;;;12.50;41.30;;;;;;4948010;28;20468;-69
2023/03/26 11:27:04;;;;;;;1.73;1.10;;;12.60;41.30;;;;;;4968688;28;20423;-70
2023/03/26 11:29:44;;;;;;;1.80;1.20;;;11.90;43.90;;;;;;4975538;28;20464;-70
2023/03/26 11:32:41;;;;;;;1.80;1.20;;;12.40;42.20;;;;;;4969562;28;20445;-70
2023/03/26 11:35:31;;;;;;;2.10;1.43;;;13.10;41.20;;;;;;4944215;28;20471;-71
2023/03/26 11:38:02;;;;;;;1.80;1.10;;;13.40;40.20;;;;;;4976386;28;20768;-70
2023/03/26 11:40:33;;;;;;;1.90;1.27;;;13.80;40.20;;;;;;4976820;28;20914;-70
2023/03/26 11:43:06;;;;;;;2.53;1.50;;;15.00;37.00;;;;;;4972249;28;20447;-71
2023/03/26 11:45:42;;;;;;;2.00;1.30;;;16.00;33.70;;;;;;4968771;28;20472;-73
2023/03/26 11:48:37;;;;;;;2.10;1.40;;;15.30;32.70;;;;;;4962019;28;20428;-71
2023/03/26 11:51:17;;;;;;;2.00;1.30;;;15.30;39.50;;;;;;4968091;28;20478;-70
2023/03/26 11:53:45;;;;;;;1.97;1.23;;;16.60;32.00;;;;;;4964305;28;20965;-70
2023/03/26 11:56:33;;;;;;;2.10;1.30;;;17.70;30.20;;;;;;4969889;28;20444;-70
2023/03/26 11:59:10;;;;;;;2.10;1.33;;;18.90;27.10;;;;;;4967197;28;20533;-70
2023/03/26 12:01:50;;;;;;;2.00;1.20;;;18.70;28.60;;;;;;4977028;28;20439;-73
2023/03/26 12:04:39;;;;;;;2.40;1.20;;;19.10;26.80;;;;;;4957553;28;21200;-70
2023/03/26 12:07:22;;;;;;;3.20;1.40;;;18.50;26.80;;;;;;4966025;28;20430;-70
2023/03/26 12:09:55;;;;;;;2.60;1.20;;;18.90;25.20;;;;;;4967670;28;20444;-71
2023/03/26 12:12:24;;;;;;;2.67;1.20;;;19.00;26.40;;;;;;4974416;28;20517;-72
2023/03/26 12:14:50;;;;;;;3.50;1.50;;;19.00;26.60;;;;;;4975452;28;20460;-71
2023/03/26 12:17:34;;;;;;;2.80;1.20;;;19.20;27.20;;;;;;4978443;28;20446;-67
2023/03/26 12:20:21;;;;;;;2.90;1.23;;;20.20;24.60;;;;;;4974078;28;20457;-70
2023/03/26 12:22:47;;;;;;;3.10;1.20;;;20.60;24.60;;;;;;4968055;28;20968;-71
2023/03/26 12:25:15;;;;;;;3.27;1.37;;;20.00;23.10;;;;;;4965671;28;20823;-71
2023/03/26 12:27:47;;;;;;;3.17;1.40;;;20.30;23.50;;;;;;4969009;28;20431;-71
2023/03/26 12:30:27;;;;;;;3.20;1.30;;;20.60;24.10;;;;;;4981461;28;20443;-74
2023/03/26 12:33:02;;;;;;;3.93;1.40;;;20.00;22.40;;;;;;4970383;28;20515;-71
2023/03/26 12:35:33;;;;;;;3.37;1.40;;;19.90;23.00;;;;;;4973004;28;20951;-68
2023/03/26 12:38:36;;;;;;;3.20;1.30;;;19.60;23.30;;;;;;4969874;28;21022;-72
2023/03/26 12:41:09;;;;;;;3.30;1.30;;;20.60;22.60;;;;;;4971834;28;20560;-72
2023/03/26 12:43:44;;;;;;;3.20;1.20;;;21.10;22.00;;;;;;4969265;28;20817;-73
2023/03/26 12:46:33;;;;;;;3.10;1.20;;;21.10;19.80;;;;;;4973677;28;20473;-72
2023/03/26 12:49:05;;;;;;;3.00;1.10;;;20.20;20.80;;;;;;4969680;28;20440;-70
2023/03/26 12:51:55;;;;;;;3.20;1.30;;;21.00;21.30;;;;;;4970377;28;20425;-70
2023/03/26 12:54:27;;;;;;;3.13;1.23;;;19.80;20.30;;;;;;4969740;28;20454;-70
2023/03/26 12:57:07;;;;;;;3.10;1.23;;;20.20;20.10;;;;;;4971746;28;20427;-70
2023/03/26 12:59:33;;;;;;;3.20;1.10;;;19.80;21.30;;;;;;4969920;28;20949;-70
2023/03/26 13:02:19;;;;;;;3.40;1.30;;;22.00;19.60;;;;;;4964954;28;20445;-70
2023/03/26 13:04:48;;;;;;;3.33;1.20;;;22.70;17.50;;;;;;4964195;28;20288;-70
2023/03/26 13:07:49;;;;;;;3.20;1.10;;;21.30;17.80;;;;;;4973778;28;20500;-69
2023/03/26 13:10:26;;;;;;;3.70;1.40;;;21.60;19.30;;;;;;4903674;29;20448;-70
2023/03/26 13:13:21;;;;;;;3.60;1.27;;;20.50;18.10;;;;;;4965330;28;20460;-70
2023/03/26 13:15:55;;;;;;;3.37;1.30;;;19.30;19.90;;;;;;4971930;28;20456;-68
2023/03/26 13:18:42;;;;;;;3.20;1.10;;;19.30;19.60;;;;;;4980735;28;20467;-69
2023/03/26 13:21:07;;;;;;;3.40;1.27;;;18.60;21.90;;;;;;4970419;28;20427;-69
2023/03/26 13:23:33;;;;;;;3.40;1.30;;;20.20;18.70;;;;;;4970447;28;20466;-70